Time;durP1;ratioP1;P1;durP2;ratioP2;P2;SDS_P1;SDS_P2;PMS_P1;PMS_P2;Temp;Humidity;BMP_temperature;BMP_pressure;BME280_temperature;BME280_humidity;BME280_pressure;Samples;Min_cycle;Max_cycle;Signal;HPM_P1;HPM_P2
2022/09/08 00:00:14;;;;;;;8.88;3.30;;;;;;;22.21;61.13;99313.59;5057426;28;20040;-89
2022/09/08 00:02:41;;;;;;;10.98;3.15;;;;;;;22.20;61.92;99328.16;5066480;28;20450;-91
2022/09/08 00:05:09;;;;;;;5.85;3.10;;;;;;;22.15;62.78;99328.81;5045967;28;20120;-90
2022/09/08 00:07:38;;;;;;;8.18;3.88;;;;;;;22.18;63.33;99333.75;5039984;28;20044;-91
2022/09/08 00:10:04;;;;;;;11.07;3.75;;;;;;;22.25;62.82;99360.78;5062515;28;20050;-90
2022/09/08 00:12:34;;;;;;;8.50;2.95;;;;;;;22.27;60.53;99332.44;5007992;28;20480;-89
2022/09/08 00:15:01;;;;;;;4.40;2.85;;;;;;;22.21;61.04;99337.91;5061198;28;20080;-90
2022/09/08 00:17:28;;;;;;;8.75;3.22;;;;;;;22.26;60.05;99317.28;5050722;28;20047;-92
2022/09/08 00:19:55;;;;;;;4.35;3.00;;;;;;;22.26;60.07;99319.13;5059409;28;20059;-92
2022/09/08 00:22:21;;;;;;;10.05;2.95;;;;;;;22.20;60.64;99315.47;5049723;28;20047;-86
2022/09/08 00:24:48;;;;;;;4.80;2.38;;;;;;;22.31;58.51;99312.03;5041760;28;20507;-92
2022/09/08 00:27:15;;;;;;;7.30;2.83;;;;;;;22.29;58.71;99319.53;5047938;28;20131;-92
2022/09/08 00:29:42;;;;;;;6.00;3.30;;;;;;;22.22;59.08;99315.25;5077511;28;20079;-90
2022/09/08 00:32:09;;;;;;;9.05;2.90;;;;;;;22.16;60.34;99310.69;5044540;28;20036;-91
2022/09/08 00:34:36;;;;;;;5.55;2.70;;;;;;;22.09;61.59;99308.91;5045114;28;20051;-92
2022/09/08 00:37:03;;;;;;;5.85;2.90;;;;;;;22.01;62.75;99308.38;5058361;28;20488;-91
2022/09/08 00:39:30;;;;;;;7.65;3.00;;;;;;;22.02;62.31;99300.00;5047969;28;20104;-91
2022/09/08 00:41:57;;;;;;;6.13;2.90;;;;;;;21.97;62.96;99315.25;5047732;28;20048;-92
2022/09/08 00:44:50;;;;;;;9.25;3.00;;;;;;;21.70;64.37;99301.97;5027247;28;20429;-93
2022/09/08 00:47:33;;;;;;;5.03;2.75;;;;;;;21.72;64.20;99313.38;4954716;28;20052;-91
2022/09/08 00:50:02;;;;;;;5.13;3.22;;;;;;;21.86;63.69;99303.31;5010346;28;20120;-92
2022/09/08 00:52:37;;;;;;;7.13;3.28;;;;;;;21.71;64.53;99300.94;5060773;28;20068;-91
2022/09/08 00:55:06;;;;;;;5.93;3.05;;;;;;;21.86;63.66;99296.03;5019063;28;20123;-92
2022/09/08 00:57:32;;;;;;;7.20;3.45;;;;;;;21.76;64.32;99294.88;5059428;28;20108;-91
2022/09/08 00:59:59;;;;;;;5.80;3.20;;;;;;;21.77;64.12;99291.13;5069012;28;20444;-91
2022/09/08 01:02:26;;;;;;;9.73;3.47;;;;;;;21.73;64.12;99290.75;5027514;28;20049;-91
2022/09/08 01:04:56;;;;;;;8.32;3.28;;;;;;;21.72;64.09;99286.38;5065262;28;20040;-93
2022/09/08 01:13:45;;;;;;;7.43;3.80;;;;;;;21.66;64.92;99296.19;4996476;28;20483;-92
2022/09/08 01:16:12;;;;;;;5.57;3.10;;;;;;;21.69;64.53;99297.63;5045857;28;20105;-93
2022/09/08 01:18:39;;;;;;;8.18;3.10;;;;;;;21.71;64.31;99300.13;5067030;28;20044;-91
2022/09/08 01:21:13;;;;;;;6.10;3.28;;;;;;;21.68;64.74;99301.38;5015938;28;20040;-90
2022/09/08 01:23:55;;;;;;;8.27;3.72;;;;;;;21.45;65.38;99300.13;5039739;28;20433;-91
2022/09/08 01:26:24;;;;;;;7.32;3.22;;;;;;;21.67;64.71;99299.72;5034536;28;20044;-91
2022/09/08 01:28:58;;;;;;;5.93;3.20;;;;;;;21.51;65.55;99298.41;5049997;28;20056;-90
2022/09/08 01:31:25;;;;;;;5.07;3.33;;;;;;;21.62;64.58;99300.38;5049035;28;20048;-89
2022/09/08 01:33:52;;;;;;;7.50;3.10;;;;;;;21.66;64.27;99295.38;5047655;28;20037;-89
2022/09/08 01:36:19;;;;;;;8.13;3.33;;;;;;;21.64;64.23;99289.34;5045872;28;20075;-90
2022/09/08 01:38:46;;;;;;;12.07;4.03;;;;;;;21.59;64.48;99292.72;5063256;28;20098;-90
2022/09/08 01:41:13;;;;;;;9.90;3.90;;;;;;;21.63;64.01;99298.53;5044244;28;20098;-89
2022/09/08 01:43:40;;;;;;;7.50;3.78;;;;;;;21.63;64.37;99299.34;5052249;28;20094;-89
2022/09/08 01:46:07;;;;;;;10.85;3.80;;;;;;;21.59;64.67;99292.72;5057774;28;20040;-88
2022/09/08 01:48:34;;;;;;;9.00;3.97;;;;;;;21.52;65.64;99291.13;5061513;28;20399;-89
2022/09/08 01:55:33;;;;;;;9.68;3.65;;;;;;;21.40;66.48;99291.03;5037401;28;20028;-88
2022/09/08 01:58:00;;;;;;;7.55;3.78;;;;;;;21.33;66.90;99274.00;5055575;28;20128;-90
2022/09/08 02:00:27;;;;;;;7.60;3.63;;;;;;;21.31;67.21;99276.91;5078100;28;20562;-89
2022/09/08 02:02:54;;;;;;;5.75;3.03;;;;;;;21.36;66.86;99268.16;5066373;28;20131;-89
2022/09/08 02:05:22;;;;;;;10.05;3.28;;;;;;;21.34;67.02;99265.66;5065511;28;20139;-89
2022/09/08 02:07:50;;;;;;;9.90;3.40;;;;;;;21.30;67.06;99267.16;5036637;28;20037;-89
2022/09/08 02:10:17;;;;;;;7.13;3.50;;;;;;;21.38;67.06;99269.63;5055969;28;20048;-90
2022/09/08 02:12:44;;;;;;;10.32;3.40;;;;;;;21.35;67.29;99258.41;5039462;28;20075;-91
2022/09/08 02:15:11;;;;;;;6.70;3.92;;;;;;;21.28;67.63;99250.34;5043948;28;20052;-89
2022/09/08 02:17:37;;;;;;;6.32;3.20;;;;;;;21.26;68.05;99249.75;5080474;28;20123;-89
2022/09/08 02:20:04;;;;;;;9.75;4.00;;;;;;;21.27;67.85;99245.16;5084595;28;20128;-89
2022/09/08 02:22:32;;;;;;;6.75;3.47;;;;;;;21.29;67.49;99249.28;5059626;28;20098;-88
2022/09/08 02:24:59;;;;;;;7.22;4.10;;;;;;;21.31;67.54;99260.72;5060037;28;20076;-89
2022/09/08 02:27:25;;;;;;;4.63;3.42;;;;;;;21.26;68.38;99257.84;5041869;28;20052;-89
2022/09/08 02:29:52;;;;;;;7.82;3.70;;;;;;;21.30;67.97;99250.16;5048680;28;20120;-88
2022/09/08 02:32:18;;;;;;;10.15;4.40;;;;;;;21.37;67.88;99238.25;5089549;28;20072;-89
2022/09/08 02:34:49;;;;;;;5.88;3.50;;;;;;;21.40;68.11;99243.22;5054771;28;20114;-88
2022/09/08 02:37:16;;;;;;;10.45;3.78;;;;;;;21.40;67.91;99240.53;5040489;28;20045;-88
2022/09/08 02:39:43;;;;;;;6.15;3.58;;;;;;;21.42;67.71;99243.84;5047759;28;20456;-89
2022/09/08 02:42:11;;;;;;;6.28;3.50;;;;;;;21.39;67.85;99240.72;5058574;28;20050;-88
2022/09/08 02:44:38;;;;;;;9.50;3.88;;;;;;;21.44;67.81;99249.81;5079444;28;20068;-88
2022/09/08 02:47:05;;;;;;;6.22;3.92;;;;;;;21.41;68.32;99254.84;5059907;28;20047;-90
2022/09/08 02:49:32;;;;;;;6.05;3.90;;;;;;;21.39;68.00;99256.94;5065075;28;22359;-89
2022/09/08 02:51:59;;;;;;;5.30;3.85;;;;;;;21.39;67.61;99268.56;5059411;28;20542;-89
2022/09/08 02:54:26;;;;;;;8.43;4.30;;;;;;;21.32;67.36;99262.38;5043304;28;20554;-89
2022/09/08 02:56:53;;;;;;;8.05;3.50;;;;;;;21.37;67.01;99251.75;5042777;28;22316;-89
2022/09/08 02:59:19;;;;;;;8.43;3.38;;;;;;;21.30;67.44;99247.44;5014498;28;20033;-90
2022/09/08 03:01:49;;;;;;;7.60;3.50;;;;;;;21.29;67.39;99256.56;5049757;28;20045;-90
2022/09/08 03:04:16;;;;;;;5.88;3.30;;;;;;;21.23;67.05;99242.91;5063946;28;20097;-90
2022/09/08 03:06:43;;;;;;;9.55;3.67;;;;;;;21.27;65.89;99237.91;5059900;28;20032;-89
2022/09/08 03:09:10;;;;;;;7.55;3.75;;;;;;;21.19;67.24;99225.50;5043649;28;20051;-89
2022/09/08 03:11:37;;;;;;;6.88;3.10;;;;;;;21.21;67.04;99223.38;5077593;28;20083;-89
2022/09/08 03:14:03;;;;;;;9.70;4.10;;;;;;;21.19;67.16;99230.91;5047450;28;20048;-89
2022/09/08 03:16:30;;;;;;;7.10;3.58;;;;;;;21.22;67.55;99230.47;5067779;28;20036;-89
2022/09/08 03:18:57;;;;;;;7.55;4.00;;;;;;;21.22;67.68;99235.03;5064223;28;20127;-88
2022/09/08 03:21:24;;;;;;;7.57;4.00;;;;;;;21.21;67.61;99242.28;5041510;28;20500;-89
2022/09/08 03:23:51;;;;;;;10.32;3.90;;;;;;;21.13;68.11;99239.88;5057271;28;20044;-89
2022/09/08 03:26:19;;;;;;;8.43;3.78;;;;;;;21.16;67.68;99239.41;5057545;28;20635;-89
2022/09/08 03:28:51;;;;;;;6.50;4.03;;;;;;;21.16;67.30;99239.41;5075742;28;20127;-89
2022/09/08 03:31:19;;;;;;;7.28;3.85;;;;;;;21.24;66.76;99241.03;5063755;28;20098;-89
2022/09/08 03:38:41;;;;;;;8.02;3.75;;;;;;;21.09;67.48;99238.66;5058751;28;20109;-90
2022/09/08 03:41:36;;;;;;;7.65;3.20;;;;;;;20.88;68.92;99239.81;5056659;28;20049;-90
2022/09/08 03:44:03;;;;;;;11.18;3.83;;;;;;;21.12;67.25;99234.69;4972321;28;20093;-90
2022/09/08 03:46:32;;;;;;;7.18;3.72;;;;;;;21.12;68.19;99245.50;5072832;28;20044;-90
2022/09/08 03:48:59;;;;;;;9.20;3.80;;;;;;;21.07;68.16;99239.94;5008389;28;20093;-89
2022/09/08 03:51:26;;;;;;;6.72;3.80;;;;;;;21.12;68.27;99250.91;5015813;28;20119;-89
2022/09/08 03:54:46;;;;;;;9.25;3.78;;;;;;;21.09;68.17;99251.31;5064738;28;20090;-88
2022/09/08 03:56:42;;;;;;;6.38;3.65;;;;;;;21.01;69.00;99233.50;5017531;28;20051;-88
2022/09/08 03:59:09;;;;;;;9.52;3.85;;;;;;;21.07;67.81;99229.94;5042936;28;20060;-88
2022/09/08 04:01:35;;;;;;;6.72;3.80;;;;;;;21.05;67.97;99237.44;5057102;28;20055;-89
2022/09/08 04:04:02;;;;;;;5.93;3.28;;;;;;;21.10;67.88;99228.69;5058030;28;20041;-86
2022/09/08 04:06:30;;;;;;;8.43;4.32;;;;;;;21.05;69.18;99225.81;5043424;28;20463;-88
2022/09/08 04:08:57;;;;;;;8.57;4.55;;;;;;;21.02;68.96;99229.78;5072110;28;20425;-88
2022/09/08 04:11:24;;;;;;;6.53;4.50;;;;;;;21.03;68.31;99223.31;5061487;28;20037;-88
2022/09/08 04:13:51;;;;;;;7.18;4.05;;;;;;;21.04;69.04;99227.69;5064510;28;20060;-88
2022/09/08 04:16:18;;;;;;;9.90;4.70;;;;;;;21.03;69.62;99226.84;5063626;28;20128;-87
2022/09/08 04:18:45;;;;;;;10.55;4.85;;;;;;;21.06;69.07;99227.47;5076577;28;20050;-86
2022/09/08 04:21:11;;;;;;;10.13;4.85;;;;;;;20.98;69.27;99220.47;5032198;28;20060;-86
2022/09/08 04:23:38;;;;;;;9.10;4.32;;;;;;;21.00;68.59;99224.59;5013154;28;20064;-87
2022/09/08 04:26:08;;;;;;;12.57;5.00;;;;;;;20.92;69.20;99218.63;5058756;28;20048;-86
2022/09/08 04:28:36;;;;;;;10.77;4.30;;;;;;;20.98;69.84;99213.19;5072807;28;20041;-86
2022/09/08 04:31:07;;;;;;;7.35;4.93;;;;;;;20.81;71.09;99225.53;5047511;28;20083;-87
2022/09/08 04:33:35;;;;;;;8.80;4.75;;;;;;;20.85;70.30;99209.75;5046853;28;20071;-86
2022/09/08 04:36:13;;;;;;;10.45;5.50;;;;;;;20.81;71.06;99223.69;5074710;28;20452;-87
2022/09/08 04:38:57;;;;;;;8.15;4.90;;;;;;;20.90;70.93;99212.63;5065651;28;20118;-87
2022/09/08 04:41:30;;;;;;;9.00;4.80;;;;;;;20.86;70.64;99204.13;5051028;28;20475;-86
2022/09/08 04:44:02;;;;;;;12.15;4.93;;;;;;;20.98;69.86;99207.78;5045957;28;20130;-86
2022/09/08 04:46:29;;;;;;;8.50;4.38;;;;;;;20.95;70.62;99208.22;5058817;28;20064;-86
2022/09/08 04:48:57;;;;;;;14.75;4.82;;;;;;;20.92;70.70;99216.75;5059001;28;20044;-87
2022/09/08 04:51:25;;;;;;;7.78;4.85;;;;;;;20.89;71.08;99214.50;5031305;28;20044;-87
2022/09/08 04:53:52;;;;;;;7.30;4.50;;;;;;;20.79;71.61;99206.06;5029344;28;20040;-88
2022/09/08 04:56:20;;;;;;;10.90;4.57;;;;;;;20.87;71.50;99210.38;5070885;28;20118;-87
2022/09/08 04:58:47;;;;;;;9.48;5.35;;;;;;;20.84;71.48;99213.47;5075545;28;20513;-87
2022/09/08 05:01:26;;;;;;;8.80;5.22;;;;;;;20.76;72.00;99218.13;5029654;28;20132;-87
2022/09/08 05:03:55;;;;;;;8.52;4.68;;;;;;;20.79;71.73;99211.47;5080407;28;20042;-87
2022/09/08 05:06:22;;;;;;;13.20;5.18;;;;;;;20.80;72.07;99216.63;5092846;28;20119;-86
2022/09/08 05:08:51;;;;;;;7.55;4.78;;;;;;;20.82;71.92;99216.41;5062806;28;20121;-87
2022/09/08 05:11:19;;;;;;;7.03;4.68;;;;;;;20.86;72.08;99214.09;5046691;28;20127;-87
2022/09/08 05:13:46;;;;;;;10.10;4.80;;;;;;;20.90;72.12;99218.03;5072931;28;20548;-87
2022/09/08 05:16:15;;;;;;;10.40;4.57;;;;;;;20.88;72.30;99218.22;5046563;28;20040;-87
2022/09/08 05:18:46;;;;;;;13.00;4.63;;;;;;;20.84;72.52;99217.03;5076790;28;20045;-88
2022/09/08 05:21:13;;;;;;;9.57;4.85;;;;;;;20.91;72.05;99214.28;5058828;28;20047;-89
2022/09/08 05:23:40;;;;;;;15.07;6.45;;;;;;;20.89;72.14;99219.91;5073344;28;20391;-87
2022/09/08 05:26:10;;;;;;;9.10;5.13;;;;;;;20.89;72.16;99221.75;5096034;28;20141;-88
2022/09/08 05:28:39;;;;;;;13.18;5.63;;;;;;;20.89;72.50;99227.16;5067627;28;20491;-88
2022/09/08 05:31:12;;;;;;;11.85;5.00;;;;;;;20.91;72.56;99235.84;5042455;28;20094;-87
2022/09/08 05:33:39;;;;;;;12.38;5.30;;;;;;;20.87;72.63;99238.19;5074532;28;20582;-87
2022/09/08 05:36:18;;;;;;;10.05;4.88;;;;;;;20.80;73.23;99246.31;5049404;28;20068;-86
2022/09/08 05:38:46;;;;;;;16.10;5.68;;;;;;;20.93;72.55;99245.41;5044358;28;20052;-87
2022/09/08 05:41:14;;;;;;;10.30;5.28;;;;;;;20.96;72.50;99250.38;5057642;28;20044;-87
2022/09/08 05:43:41;;;;;;;7.82;5.20;;;;;;;21.03;72.06;99247.63;5043508;28;20047;-86
2022/09/08 05:46:09;;;;;;;10.10;5.18;;;;;;;21.02;72.41;99264.88;5043281;28;20044;-86
2022/09/08 05:48:41;;;;;;;7.38;4.72;;;;;;;21.10;71.72;99255.69;5076631;28;20036;-87
2022/09/08 05:51:09;;;;;;;10.32;4.82;;;;;;;21.06;72.04;99271.47;5091099;28;20132;-88
2022/09/08 05:53:39;;;;;;;11.07;5.10;;;;;;;21.10;72.03;99275.41;5070357;28;20127;-87
2022/09/08 05:56:07;;;;;;;8.35;5.18;;;;;;;21.17;71.59;99275.38;5054492;28;20056;-86
2022/09/08 05:58:35;;;;;;;8.40;4.40;;;;;;;21.16;71.70;99279.09;5041621;28;20049;-87
2022/09/08 06:01:10;;;;;;;5.18;3.40;;;;;;;20.99;72.29;99289.59;5075087;28;20072;-87
2022/09/08 06:03:37;;;;;;;5.95;4.18;;;;;;;21.23;70.61;99285.28;5058433;28;20052;-87
2022/09/08 06:06:09;;;;;;;9.82;3.65;;;;;;;21.16;70.52;99282.63;5042077;28;20392;-87
2022/09/08 06:08:39;;;;;;;12.30;4.25;;;;;;;21.18;70.57;99287.81;5057088;28;20101;-87
2022/09/08 06:11:07;;;;;;;6.22;3.80;;;;;;;21.32;69.77;99289.38;5058115;28;20402;-87
2022/09/08 06:13:35;;;;;;;6.85;3.40;;;;;;;21.18;70.29;99295.91;5058886;28;20073;-86
2022/09/08 06:16:05;;;;;;;9.98;3.13;;;;;;;21.17;70.34;99305.91;5042631;28;20047;-86
2022/09/08 06:18:37;;;;;;;4.65;3.30;;;;;;;21.10;70.62;99309.69;5073343;28;20094;-87
2022/09/08 06:21:24;;;;;;;6.70;3.50;;;;;;;20.87;72.46;99313.75;5050608;28;20123;-87
2022/09/08 06:23:57;;;;;;;5.28;3.03;;;;;;;21.07;71.01;99312.81;4970398;28;20077;-87
2022/09/08 06:26:42;;;;;;;5.00;3.40;;;;;;;20.92;70.50;99315.81;4967578;28;20129;-87
2022/09/08 06:29:28;;;;;;;5.10;3.10;;;;;;;21.06;68.82;99313.84;4986443;28;20080;-88
2022/09/08 06:32:01;;;;;;;4.32;3.30;;;;;;;21.01;69.55;99330.69;4961024;28;20616;-88
2022/09/08 06:34:28;;;;;;;;;;;;;;;20.71;70.54;99327.72;4969895;28;20125;-89
2022/09/08 06:36:59;;;;;;;4.22;3.47;;;;;;;21.01;69.20;99331.53;4987285;28;20007;-88
2022/09/08 06:39:37;;;;;;;8.10;2.50;;;;;;;20.85;69.00;99336.59;5007354;28;20533;-87
2022/09/08 06:42:13;;;;;;;4.90;2.55;;;;;;;20.83;69.11;99334.09;4984794;28;20095;-87
2022/09/08 06:44:42;;;;;;;5.50;2.30;;;;;;;21.06;67.25;99333.56;4954077;28;20518;-88
2022/09/08 06:47:16;;;;;;;7.07;2.40;;;;;;;20.87;68.08;99337.22;4981867;28;20039;-87
2022/09/08 06:49:46;;;;;;;4.15;2.03;;;;;;;20.99;67.98;99336.31;4989655;28;20113;-88
2022/09/08 06:52:44;;;;;;;4.82;1.80;;;;;;;20.77;67.65;99341.19;4986641;28;20134;-89
2022/09/08 06:55:36;;;;;;;7.40;2.40;;;;;;;20.79;67.86;99328.31;4959960;28;20434;-87
2022/09/08 06:58:27;;;;;;;4.05;2.03;;;;;;;20.75;68.60;99326.25;5071513;28;20515;-87
2022/09/08 07:01:04;;;;;;;3.75;1.65;;;;;;;20.76;68.33;99330.59;5000512;28;20093;-88
2022/09/08 07:03:35;;;;;;;8.93;2.10;;;;;;;20.84;68.28;99332.22;5031737;28;20036;-88
2022/09/08 07:06:10;;;;;;;3.38;1.63;;;;;;;20.70;68.27;99343.06;5049966;28;20446;-87
2022/09/08 07:08:54;;;;;;;5.30;1.90;;;;;;;20.63;68.87;99346.84;5009620;28;20058;-87
2022/09/08 07:11:32;;;;;;;2.20;1.75;;;;;;;20.57;68.79;99351.22;5038689;28;20067;-87
2022/09/08 07:14:02;;;;;;;2.95;1.58;;;;;;;20.73;67.96;99356.13;5045005;28;20096;-86
2022/09/08 07:16:40;;;;;;;3.00;1.90;;;;;;;20.70;67.98;99358.44;5051791;28;20048;-87
2022/09/08 07:19:23;;;;;;;11.80;2.13;;;;;;;20.60;68.19;99367.78;5022969;28;20048;-89
2022/09/08 07:22:18;;;;;;;4.13;1.80;;;;;;;20.85;66.86;99371.66;5012783;28;20050;-87
2022/09/08 07:24:45;;;;;;;4.63;2.08;;;;;;;20.86;67.32;99365.22;5043638;28;20068;-88
2022/09/08 07:27:13;;;;;;;2.50;1.70;;;;;;;20.90;67.37;99375.38;5087719;28;20449;-89
2022/09/08 07:29:47;;;;;;;5.82;1.98;;;;;;;20.80;67.02;99365.03;5029897;28;20496;-87
2022/09/08 07:32:17;;;;;;;4.22;1.73;;;;;;;20.98;66.09;99385.09;5062803;28;20119;-87
2022/09/08 07:34:52;;;;;;;4.95;1.92;;;;;;;20.81;66.74;99376.66;5070506;28;20127;-88
2022/09/08 07:37:28;;;;;;;3.88;1.70;;;;;;;20.85;66.39;99380.59;5046214;28;20040;-88
2022/09/08 07:40:14;;;;;;;3.25;1.60;;;;;;;20.90;65.85;99388.06;5002576;28;20127;-88
2022/09/08 07:42:43;;;;;;;4.97;1.90;;;;;;;20.97;65.67;99395.06;5063924;28;20106;-89
2022/09/08 07:45:11;;;;;;;4.07;1.50;;;;;;;20.93;65.88;99387.63;5041182;28;20048;-89
2022/09/08 07:47:40;;;;;;;4.70;1.35;;;;;;;21.00;65.23;99391.94;5074184;28;20068;-88
2022/09/08 07:50:56;;;;;;;5.38;1.70;;;;;;;20.74;65.30;99392.88;5078750;28;20411;-89
2022/09/08 07:53:44;;;;;;;5.18;1.33;;;;;;;20.85;65.56;99393.25;4978566;28;20118;-89
2022/09/08 07:56:18;;;;;;;4.05;1.40;;;;;;;20.79;65.23;99403.88;5026363;28;20488;-89
2022/09/08 07:59:01;;;;;;;7.50;1.45;;;;;;;20.70;65.70;99401.59;5007433;28;20129;-88
2022/09/08 08:01:46;;;;;;;2.90;1.40;;;;;;;20.87;65.04;99410.91;5070797;28;20117;-88
2022/09/08 08:04:51;;;;;;;3.45;1.50;;;;;;;20.72;65.63;99423.81;5079134;28;20040;-88
2022/09/08 08:07:24;;;;;;;5.53;1.40;;;;;;;20.87;65.68;99428.97;5003515;28;20055;-89
2022/09/08 08:10:25;;;;;;;4.28;1.30;;;;;;;20.71;65.98;99427.53;5043926;28;20108;-89
2022/09/08 08:13:00;;;;;;;4.05;1.30;;;;;;;20.99;64.79;99428.09;4987184;28;20044;-88
2022/09/08 08:15:36;;;;;;;6.75;1.90;;;;;;;20.91;65.05;99433.69;5061198;28;20551;-88
2022/09/08 08:18:27;;;;;;;2.20;1.33;;;;;;;20.98;64.09;99426.41;5054043;28;20056;-88
2022/09/08 08:21:14;;;;;;;4.95;1.30;;;;;;;20.90;64.46;99442.84;5034695;28;20071;-89
2022/09/08 08:24:09;;;;;;;2.85;1.17;;;;;;;20.98;64.91;99448.00;5032576;28;20495;-89
2022/09/08 08:27:00;;;;;;;3.13;1.30;;;;;;;20.94;64.20;99444.09;5061780;28;20060;-89
2022/09/08 08:29:49;;;;;;;3.83;1.40;;;;;;;21.17;64.29;99457.09;4994499;28;20044;-87
2022/09/08 08:32:35;;;;;;;3.35;1.20;;;;;;;20.92;64.37;99464.25;4999893;28;20487;-90
2022/09/08 08:35:26;;;;;;;6.50;1.40;;;;;;;21.13;63.96;99469.34;5027902;28;20098;-89
2022/09/08 08:37:55;;;;;;;6.22;1.52;;;;;;;21.29;63.23;99468.03;4998146;28;20082;-87
2022/09/08 08:40:46;;;;;;;3.75;1.40;;;;;;;21.19;62.92;99468.50;5067283;28;20039;-86
2022/09/08 08:43:24;;;;;;;5.95;1.40;;;;;;;21.21;63.35;99469.09;5049513;28;20048;-87
2022/09/08 08:46:19;;;;;;;3.53;1.60;;;;;;;21.23;64.02;99468.91;5011347;28;20049;-85
2022/09/08 08:49:06;;;;;;;1.52;1.40;;;;;;;21.31;62.94;99465.13;5044698;28;20040;-88
2022/09/08 08:52:09;;;;;;;3.17;1.58;;;;;;;21.32;63.00;99466.78;5026416;28;20043;-87
2022/09/08 08:54:36;;;;;;;4.97;1.70;;;;;;;;;;5000037;28;20476;-86
2022/09/08 08:57:27;;;;;;;3.70;1.48;;;;;;;21.28;63.89;99462.88;5046366;28;20105;-86
2022/09/08 09:00:17;;;;;;;3.38;1.55;;;;;;;21.39;63.10;99470.31;5015146;28;20048;-88
2022/09/08 09:03:08;;;;;;;4.40;1.45;;;;;;;21.29;63.08;99478.00;5039239;28;20531;-87
2022/09/08 09:05:48;;;;;;;2.60;1.67;;;;;;;21.42;61.42;99475.28;5030009;28;20366;-87
2022/09/08 09:08:26;;;;;;;4.07;1.60;;;;;;;21.53;62.05;99482.72;5045832;28;20109;-86
2022/09/08 09:11:21;;;;;;;4.28;1.52;;;;;;;21.49;60.63;99483.34;5026803;28;20080;-88
2022/09/08 09:14:18;;;;;;;3.70;1.70;;;;;;;21.34;61.41;99486.31;5015719;28;20533;-86
2022/09/08 09:17:04;;;;;;;2.88;1.80;;;;;;;21.33;61.03;99490.88;5032860;28;20051;-87
2022/09/08 09:20:11;;;;;;;5.10;1.52;;;;;;;21.23;61.89;99488.63;4988172;28;20522;-88
2022/09/08 09:23:00;;;;;;;4.20;1.65;;;;;;;21.48;62.11;99489.81;5013848;28;20118;-88
2022/09/08 09:25:35;;;;;;;3.97;1.60;;;;;;;21.31;62.00;99490.25;5029684;28;20098;-87
2022/09/08 09:28:09;;;;;;;2.50;1.50;;;;;;;21.31;62.09;99494.84;5068665;28;20047;-87
2022/09/08 09:30:44;;;;;;;4.32;1.50;;;;;;;21.35;61.18;99480.69;5068708;28;20053;-88
2022/09/08 09:33:27;;;;;;;5.90;1.85;;;;;;;21.29;62.31;99486.94;5050716;28;20056;-87
2022/09/08 09:36:20;;;;;;;2.05;1.40;;;;;;;21.43;62.07;99490.47;5013254;28;20368;-88
2022/09/08 09:39:14;;;;;;;4.88;1.60;;;;;;;21.41;61.80;99485.25;4994747;28;20044;-88
2022/09/08 09:42:15;;;;;;;3.58;1.70;;;;;;;21.33;61.88;99485.47;5024954;28;20117;-88
2022/09/08 09:44:59;;;;;;;2.50;1.60;;;;;;;21.31;60.93;99484.84;4987379;28;20044;-86
2022/09/08 09:47:52;;;;;;;3.55;1.60;;;;;;;21.43;61.26;99485.88;5036719;28;20488;-86
2022/09/08 09:51:21;;;;;;;4.25;1.55;;;;;;;21.26;60.50;99479.28;4980710;28;21070;-87
2022/09/08 09:54:06;;;;;;;1.90;1.70;;;;;;;21.41;61.33;99487.97;4966911;28;20041;-87
2022/09/08 09:56:35;;;;;;;3.75;1.80;;;;;;;;;;5013799;28;20520;-87
2022/09/08 09:59:36;;;;;;;3.28;1.55;;;;;;;21.31;60.79;99489.44;5064930;28;20483;-87
2022/09/08 10:02:32;;;;;;;6.90;2.03;;;;;;;21.46;60.07;99498.13;5044580;28;20048;-86
2022/09/08 10:05:32;;;;;;;5.45;1.73;;;;;;;21.42;60.60;99496.88;5027362;28;20048;-89
2022/09/08 10:08:16;;;;;;;4.80;3.00;;;;;;;21.40;59.98;99505.22;5006774;28;20052;-87
2022/09/08 10:10:53;;;;;;;2.83;1.70;;;;;;;21.53;59.87;99493.53;5072656;28;20123;-87
2022/09/08 10:13:41;;;;;;;4.35;1.80;;;;;;;21.55;59.99;99499.56;5043544;28;20436;-91
2022/09/08 10:16:13;;;;;;;5.93;2.00;;;;;;;21.67;59.79;99486.16;5053343;28;20044;-87
2022/09/08 10:19:07;;;;;;;10.50;1.83;;;;;;;21.65;59.42;99488.25;5059767;28;20042;-88
2022/09/08 10:21:38;;;;;;;6.00;1.85;;;;;;;21.76;59.30;99484.88;5031722;28;20123;-86
2022/09/08 10:24:11;;;;;;;5.50;2.38;;;;;;;21.78;58.95;99482.78;5059425;28;20048;-87
2022/09/08 10:26:43;;;;;;;;;;;;;;;21.50;57.93;99471.50;5072123;28;20093;-87
2022/09/08 10:29:34;;;;;;;2.97;1.88;;;;;;;21.66;57.70;99479.13;5070316;28;19966;-88
2022/09/08 10:32:25;;;;;;;2.10;1.67;;;;;;;21.64;56.55;99471.22;5042519;28;20051;-89
2022/09/08 10:35:03;;;;;;;3.53;2.33;;;;;;;21.82;57.90;99465.06;5063731;28;20048;-85
2022/09/08 10:37:54;;;;;;;4.18;1.70;;;;;;;21.81;57.20;99479.66;5036173;28;20403;-85
2022/09/08 10:40:32;;;;;;;2.80;1.45;;;;;;;21.87;56.57;99475.25;5024765;28;20049;-89
2022/09/08 10:43:14;;;;;;;6.53;1.80;;;;;;;21.85;56.79;99483.59;5040722;28;20154;-87
2022/09/08 10:45:59;;;;;;;7.78;1.90;;;;;;;21.89;57.26;99475.84;5060019;28;20140;-88
2022/09/08 10:48:54;;;;;;;4.90;2.10;;;;;;;21.82;56.61;99488.56;5029230;28;20132;-87
2022/09/08 10:51:39;;;;;;;6.35;2.17;;;;;;;21.79;56.48;99465.50;5012403;28;20068;-87
2022/09/08 10:54:43;;;;;;;4.50;1.80;;;;;;;21.76;55.95;99474.06;5038443;28;20123;-89
2022/09/08 10:57:38;;;;;;;5.13;2.08;;;;;;;21.83;55.89;99474.84;4962156;28;20110;-86
2022/09/08 11:00:15;;;;;;;4.15;2.30;;;;;;;21.92;56.23;99470.00;5041244;28;20041;-87
2022/09/08 11:03:06;;;;;;;4.45;1.83;;;;;;;22.00;56.41;99472.44;5056197;28;20036;-86
2022/09/08 11:05:50;;;;;;;7.15;2.47;;;;;;;21.92;56.41;99471.88;5043741;28;20387;-84
2022/09/08 11:08:26;;;;;;;4.13;2.35;;;;;;;22.06;56.49;99468.88;5040951;28;20047;-86
2022/09/08 11:11:11;;;;;;;4.40;1.92;;;;;;;22.10;56.70;99467.38;5034338;28;20131;-84
2022/09/08 11:13:47;;;;;;;8.02;2.40;;;;;;;22.07;55.34;99472.41;5082670;28;20041;-86
2022/09/08 11:16:33;;;;;;;2.58;2.10;;;;;;;22.06;54.83;99473.47;5057110;28;20037;-85
2022/09/08 11:19:09;;;;;;;4.78;1.83;;;;;;;22.14;55.12;99480.47;5048063;28;20150;-86
2022/09/08 11:22:33;;;;;;;3.58;1.95;;;;;;;22.02;54.39;99475.75;5035715;28;20125;-84
2022/09/08 11:25:12;;;;;;;3.42;1.40;;;;;;;22.09;54.87;99479.25;5018592;28;20049;-84
2022/09/08 11:28:08;;;;;;;4.47;1.60;;;;;;;22.10;54.61;99494.41;5057222;28;20090;-85
2022/09/08 11:35:11;;;;;;;4.25;1.58;;;;;;;22.15;54.39;99485.66;5032421;28;20078;-85
2022/09/08 11:38:10;;;;;;;3.78;1.88;;;;;;;22.19;54.23;99484.19;5043850;28;20075;-85
2022/09/08 11:40:45;;;;;;;3.53;1.50;;;;;;;22.27;54.54;99483.91;5007477;28;20040;-84
2022/09/08 11:43:28;;;;;;;5.88;1.75;;;;;;;22.25;54.09;99486.00;5071312;28;20049;-87
2022/09/08 11:46:04;;;;;;;1.95;1.50;;;;;;;22.32;53.92;99494.91;5029642;28;20974;-88
2022/09/08 11:48:45;;;;;;;6.30;1.40;;;;;;;22.23;53.56;99490.81;5072739;28;20040;-85
2022/09/08 11:51:19;;;;;;;3.20;1.33;;;;;;;22.26;53.66;99495.81;5030268;28;20128;-86
2022/09/08 11:54:15;;;;;;;5.20;1.55;;;;;;;22.31;53.86;99484.28;5031150;28;20455;-86
2022/09/08 11:57:10;;;;;;;2.20;1.13;;;;;;;22.33;53.64;99484.91;5042219;28;20044;-85
2022/09/08 12:00:09;;;;;;;6.38;1.60;;;;;;;22.30;52.97;99475.34;5082416;28;20051;-85
2022/09/08 12:03:06;;;;;;;2.85;1.20;;;;;;;22.36;53.24;99486.34;5054125;28;20097;-85
2022/09/08 12:05:48;;;;;;;6.38;1.30;;;;;;;22.40;53.24;99485.69;5021558;28;20063;-84
2022/09/08 12:12:42;;;;;;;2.13;1.48;;;;;;;22.47;52.76;99488.34;4992058;28;20051;-85
2022/09/08 12:15:21;;;;;;;2.40;1.42;;;;;;;22.43;52.12;99466.28;5032599;28;20061;-84
2022/09/08 12:18:07;;;;;;;6.05;1.23;;;;;;;22.50;52.15;99458.13;5041487;28;20045;-84
2022/09/08 12:21:00;;;;;;;4.28;1.20;;;;;;;22.56;51.48;99464.53;5017394;28;20132;-86
2022/09/08 12:23:36;;;;;;;5.75;1.60;;;;;;;22.59;50.84;99464.06;4981587;28;22103;-84
2022/09/08 12:30:34;;;;;;;4.72;1.20;;;;;;;22.59;50.09;99467.59;4965476;28;20051;-86
2022/09/08 12:33:12;;;;;;;6.70;1.92;;;;;;;22.65;50.34;99465.91;5005419;28;20068;-86
2022/09/08 12:35:49;;;;;;;4.00;1.45;;;;;;;22.66;50.15;99473.78;5021066;28;20037;-86
2022/09/08 12:38:46;;;;;;;6.68;1.27;;;;;;;22.60;50.20;99473.84;5011347;28;20084;-84
2022/09/08 12:41:35;;;;;;;7.05;1.35;;;;;;;22.59;50.14;99466.78;5011486;28;20112;-85
2022/09/08 12:44:20;;;;;;;9.52;1.80;;;;;;;22.53;49.03;99463.91;5038438;28;20135;-84